Aérodrome :
LOGIN :

S'inscrire | Disclaimer

   EN    FR    IT 

 










Légende :    VFR   VFR Marginal   IFR   IFR Intensif   IFR Très Intensif
Visi : 
Plafond : 
>= 8 km
>= 3000ft
5 à 8 km
1000 à 3000 ft
1500m à 5 km
500 à 1000 ft
800 à 1500m
200 à 500 ft
< 800m
< 200 ft
Symboles :   Orages  Brouillard  Fortes neiges  Fortes précipitations  Vent > 20 kt
SIGMETs :   Divers  Orages  Givrage  Turbulence  Onde Orograph.  Cendres Volcan.







- Altitude de l'aérodrome : 313 ft
- Code IATA : LEH
- Voir les cartes d'approche


LFOH - Le Havre Octeville

DERNIER METAR :
  • 242030Z AUTO 22006KT 9999 SCT046 OVC056 13/10 Q1014

METARs EXPIRÉS :
  • 242000Z AUTO 25006KT 9999 BKN049 OVC056 13/10 Q1014
  • 241930Z AUTO 26005KT 9999 OVC049 13/10 Q1014
  • 241900Z AUTO 28004KT 250V310 CAVOK 13/10 Q1014
  • 241830Z AUTO 29003KT 260V320 9999 BKN027 OVC047 13/10 Q1014
  • 241800Z AUTO 28005KT 9999 SCT047 13/10 Q1014 NOSIG

TAF TAF LFOH
Valide du 24 à 12h jusqu'au 25 à 12h UTC


241100Z 2412/2512 24010KT 9999 BKN013 OVC020
BECMG 2412/2415 BKN030
BECMG 2423/2501 24017G27KT BKN013 OVC020
TEMPO 2501/2507 2000 RADZ OVC003
BECMG 2504/2507 28013KT BKN013 BKN030
BECMG 2507/2509 BKN020
TEMPO 2509/2512 3000 SHRA
ATIS : +33 2 35 54 64 93
Pas de NOTAMs connus pour ce terrain.



MET'MAP, la Météo Aéronautique d'un coup d'oeil ! - Copyright ORBIFLY Décembre 2007 - Disclaimer

ORBIFLY MET'MAP TEAM :

Programmation & Développement : Alexandra Zaïnal
Conception & Développement : Baudouin d'Aumeries
Co-Programmation & Développement : Marc-Olivier Méhu
Soutien technique & logistique : Manuel Goepfert

Contact : metmap@orbifly.com




SOURCES & CREDITS :

   NOAA